Симферополь

Карта отелей и гостиниц, располагающихся рядом с аэропортом Симферополь :

Симферополь Автономная Республика Крым 45° 3' 7.38" N, 33° 58' 25.7412" E
Код аэродрома ИКАО
URFF
Код аэродрома RU
УРФФ
Координаты
N45.05205° E033.97382°
Превышение над уровнем моря
183
Основная полоса
01/19
Курс магнитный
006,8/186,8
Длина основной ВПП
3701
Ширина основной ВПП
60
Покрытие основной ВПП
Твёрдое (асфальтобетон)
Освещение ВПП
Постоянное
Тип: 
Аэродром
Класс аэродрома: 
Международный
Принадлежность: 
ГА
Статус: 
Действующий
Сайт: 
http://sipaero.ru/
E-mail аэродрома: 
office@airport.crimea.ua
Страна: 
Россия
Регион: 
Автономная Республика Крым
Дополнительная информация: 
Оператор: АО «Международный аэропорт «Симферополь».
Погода: 

Авиационная погода в Симферополе

Погода METAR: 
URFF 222100Z 03003MPS 9999 BKN040 M04/M04 Q1013 R01/290194 NOSIG
Время наблюдения
2022-01-22T21:00:00Z
Температура C
-4.0
Точка росы
-4.0
Направление ветра
30
Скорость ветра (узлы)
6
Метео видимость
6.21
Облачность
BKN
Нижняя граница облачности (футы)
4000
Явления погоды
Условия полета
VFR
Аэропорт подробнее: 
BKN – значительная (рассеянная, разорванная) облачность;

Найти трансфер

С помощью этой формы Вы можете найти трансфер из аэропорта Симферополь в город, аэропорт или вокзал:

Погода в аэропортах:

Авиационная погода в Куопио

Регион: 
Погода METAR: 
EFKU 222050Z AUTO 16006KT 1600 BCFG OVC002 M11/M12 Q1020
Время наблюдения
2022-01-22T20:50:00Z
Температура C
-11.0
Точка росы
-12.0
Направление ветра
160
Скорость ветра (узлы)
6
Метео видимость
0.99
Облачность
OVC
Нижняя граница облачности (футы)
200
Явления погоды
BCFG
Условия полета
LIFR
OVC – сплошная облачность;
FG – туман (небо не видно, температура воздуха выше нуля или ноль);

Авиационная погода в Талды-Коргане

Регион: 
Погода METAR: 
UAAT 221139Z 25002MPS 210V320 2700 BR FEW001 SCT200 M09/M12 Q1022 NOSIG RMK QBB050 QFE715/0953
Время наблюдения
2022-01-22T11:39:00Z
Температура C
-9.0
Точка росы
-12.0
Направление ветра
250
Скорость ветра (узлы)
4
Метео видимость
1.68
Облачность
FEW
SCT
Нижняя граница облачности (футы)
100
20000
Явления погоды
BR
Условия полета
IFR
Аэропорт подробнее: 
FEW – незначительная облачность; SCT – разбросанная отдельная облачность;
BR – дымка (видимость от 1 до 9 км);

Авиационная погода в Самаре

Регион: 
Погода METAR: 
UWWW 222100Z 15006MPS 9999 -SN OVC009 M08/M12 Q1024 R15/420240 NOSIG RMK QFE756/1009
Время наблюдения
2022-01-22T21:00:00Z
Температура C
-8.0
Точка росы
-12.0
Направление ветра
150
Скорость ветра (узлы)
12
Метео видимость
6.21
Облачность
OVC
Нижняя граница облачности (футы)
900
Явления погоды
-SN
Условия полета
IFR
Аэропорт подробнее: 
OVC – сплошная облачность;
-SN – слабый снег;

Авиационная погода в Кривом Роге

Регион: 
Погода METAR: 
UKDR 141000Z 26009MPS 9999 -RA OVC008 02/01 Q1004
Время наблюдения
2022-01-14T10:00:00Z
Температура C
2.0
Точка росы
1.0
Направление ветра
260
Скорость ветра (узлы)
17
Метео видимость
6.21
Облачность
OVC
Нижняя граница облачности (футы)
800
Явления погоды
-RA
Условия полета
IFR
Аэропорт подробнее: 
OVC – сплошная облачность;
-RA - слабый дождь;